sensor_id;sensor_type;location;lat;lon;timestamp;pressure;altitude;pressure_sealevel;temperature;humidity
60244;BME280;46106;51.468;5.814;2023-02-11T00:00:15;103151.16;;;5.78;100.00
60244;BME280;46106;51.468;5.814;2023-02-11T00:02:40;103138.56;;;5.76;100.00
60244;BME280;46106;51.468;5.814;2023-02-11T00:05:06;103122.44;;;5.66;100.00
60244;BME280;46106;51.468;5.814;2023-02-11T00:07:32;103130.53;;;5.69;100.00
60244;BME280;46106;51.468;5.814;2023-02-11T00:09:58;103132.38;;;5.69;100.00
60244;BME280;46106;51.468;5.814;2023-02-11T00:12:24;103132.50;;;5.63;100.00
60244;BME280;46106;51.468;5.814;2023-02-11T00:14:50;103143.38;;;5.63;100.00
60244;BME280;46106;51.468;5.814;2023-02-11T00:17:16;103137.88;;;5.66;100.00
60244;BME280;46106;51.468;5.814;2023-02-11T00:19:43;103124.38;;;5.61;100.00
60244;BME280;46106;51.468;5.814;2023-02-11T00:22:08;103122.34;;;5.71;100.00
60244;BME280;46106;51.468;5.814;2023-02-11T00:24:35;103126.81;;;5.74;100.00
60244;BME280;46106;51.468;5.814;2023-02-11T00:27:01;103123.25;;;5.70;100.00
60244;BME280;46106;51.468;5.814;2023-02-11T00:29:26;103122.38;;;5.69;100.00
60244;BME280;46106;51.468;5.814;2023-02-11T00:31:52;103111.44;;;5.73;100.00
60244;BME280;46106;51.468;5.814;2023-02-11T00:34:17;103120.50;;;5.71;100.00
60244;BME280;46106;51.468;5.814;2023-02-11T00:36:43;103118.72;;;5.70;100.00
60244;BME280;46106;51.468;5.814;2023-02-11T00:39:09;103112.34;;;5.73;100.00
60244;BME280;46106;51.468;5.814;2023-02-11T00:41:34;103113.16;;;5.77;100.00
60244;BME280;46106;51.468;5.814;2023-02-11T00:44:01;103109.75;;;5.67;100.00
60244;BME280;46106;51.468;5.814;2023-02-11T00:46:27;103114.22;;;5.69;100.00
60244;BME280;46106;51.468;5.814;2023-02-11T00:48:52;103123.28;;;5.68;100.00
60244;BME280;46106;51.468;5.814;2023-02-11T00:51:26;103122.28;;;5.74;100.00
60244;BME280;46106;51.468;5.814;2023-02-11T00:53:52;103115.09;;;5.71;100.00
60244;BME280;46106;51.468;5.814;2023-02-11T00:56:18;103117.72;;;5.75;100.00
60244;BME280;46106;51.468;5.814;2023-02-11T00:58:44;103125.88;;;5.75;100.00
60244;BME280;46106;51.468;5.814;2023-02-11T01:01:10;103122.34;;;5.71;100.00
60244;BME280;46106;51.468;5.814;2023-02-11T01:03:37;103136.69;;;5.78;100.00
60244;BME280;46106;51.468;5.814;2023-02-11T01:06:04;103131.34;;;5.73;100.00
60244;BME280;46106;51.468;5.814;2023-02-11T01:08:30;103123.06;;;5.79;100.00
60244;BME280;46106;51.468;5.814;2023-02-11T01:11:01;103120.47;;;5.73;100.00
60244;BME280;46106;51.468;5.814;2023-02-11T01:13:29;103123.09;;;5.78;100.00
60244;BME280;46106;51.468;5.814;2023-02-11T01:15:56;103118.59;;;5.77;100.00
60244;BME280;46106;51.468;5.814;2023-02-11T01:18:22;103125.00;;;5.74;100.00
60244;BME280;46106;51.468;5.814;2023-02-11T01:20:47;103115.94;;;5.74;100.00
60244;BME280;46106;51.468;5.814;2023-02-11T01:23:12;103127.69;;;5.76;100.00
60244;BME280;46106;51.468;5.814;2023-02-11T01:25:38;103126.81;;;5.74;100.00
60244;BME280;46106;51.468;5.814;2023-02-11T01:28:04;103134.03;;;5.75;100.00
60244;BME280;46106;51.468;5.814;2023-02-11T01:30:30;103123.38;;;5.65;100.00
60244;BME280;46106;51.468;5.814;2023-02-11T01:32:55;103131.38;;;5.71;100.00
60244;BME280;46106;51.468;5.814;2023-02-11T01:35:21;103118.81;;;5.67;100.00
60244;BME280;46106;51.468;5.814;2023-02-11T01:37:46;103126.94;;;5.69;100.00
60244;BME280;46106;51.468;5.814;2023-02-11T01:40:14;103145.88;;;5.72;100.00
60244;BME280;46106;51.468;5.814;2023-02-11T01:42:41;103132.44;;;5.66;100.00
60244;BME280;46106;51.468;5.814;2023-02-11T01:45:41;103136.88;;;5.68;100.00
60244;BME280;46106;51.468;5.814;2023-02-11T01:48:20;103128.75;;;5.67;100.00
60244;BME280;46106;51.468;5.814;2023-02-11T01:50:49;103126.00;;;5.68;100.00
60244;BME280;46106;51.468;5.814;2023-02-11T01:53:15;103100.75;;;5.63;100.00
60244;BME280;46106;51.468;5.814;2023-02-11T01:56:00;103095.34;;;5.63;100.00
60244;BME280;46106;51.468;5.814;2023-02-11T01:58:46;103079.16;;;5.57;100.00
60244;BME280;46106;51.468;5.814;2023-02-11T02:01:17;103076.47;;;5.56;100.00
60244;BME280;46106;51.468;5.814;2023-02-11T02:03:45;103062.00;;;5.55;100.00
60244;BME280;46106;51.468;5.814;2023-02-11T02:06:26;103075.59;;;5.55;100.00
60244;BME280;46106;51.468;5.814;2023-02-11T02:08:59;103076.59;;;5.51;100.00
60244;BME280;46106;51.468;5.814;2023-02-11T02:11:26;103087.34;;;5.56;100.00
60244;BME280;46106;51.468;5.814;2023-02-11T02:13:52;103083.84;;;5.50;100.00
60244;BME280;46106;51.468;5.814;2023-02-11T02:16:20;103092.91;;;5.51;100.00
60244;BME280;46106;51.468;5.814;2023-02-11T02:22:04;103108.25;;;5.52;100.00
60244;BME280;46106;51.468;5.814;2023-02-11T02:33:18;103093.69;;;5.56;100.00
60244;BME280;46106;51.468;5.814;2023-02-11T02:35:54;103082.84;;;5.55;100.00
60244;BME280;46106;51.468;5.814;2023-02-11T02:38:33;103084.66;;;5.54;100.00
60244;BME280;46106;51.468;5.814;2023-02-11T02:41:07;103073.03;;;5.47;100.00
60244;BME280;46106;51.468;5.814;2023-02-11T02:43:36;103053.28;;;5.39;100.00
60244;BME280;46106;51.468;5.814;2023-02-11T02:46:32;103071.06;;;5.54;100.00
60244;BME280;46106;51.468;5.814;2023-02-11T02:48:59;103089.09;;;5.58;100.00
60244;BME280;46106;51.468;5.814;2023-02-11T02:57:07;103097.19;;;5.61;100.00
60244;BME280;46106;51.468;5.814;2023-02-11T02:59:45;103089.94;;;5.62;100.00
60244;BME280;46106;51.468;5.814;2023-02-11T03:02:23;103080.09;;;5.56;100.00
60244;BME280;46106;51.468;5.814;2023-02-11T03:10:33;103068.16;;;5.63;100.00
60244;BME280;46106;51.468;5.814;2023-02-11T03:13:02;103059.09;;;5.64;100.00
60244;BME280;46106;51.468;5.814;2023-02-11T03:15:31;103059.22;;;5.58;100.00
60244;BME280;46106;51.468;5.814;2023-02-11T03:18:00;103062.78;;;5.60;100.00
60244;BME280;46106;51.468;5.814;2023-02-11T03:20:29;103066.44;;;5.59;100.00
60244;BME280;46106;51.468;5.814;2023-02-11T03:23:01;103060.03;;;5.62;100.00
60244;BME280;46106;51.468;5.814;2023-02-11T03:25:33;103061.94;;;5.58;100.00
60244;BME280;46106;51.468;5.814;2023-02-11T03:28:37;103056.56;;;5.55;100.00
60244;BME280;46106;51.468;5.814;2023-02-11T03:31:17;103067.50;;;5.52;100.00
60244;BME280;46106;51.468;5.814;2023-02-11T03:33:53;103070.28;;;5.49;100.00
60244;BME280;46106;51.468;5.814;2023-02-11T03:39:15;103083.03;;;5.45;100.00
60244;BME280;46106;51.468;5.814;2023-02-11T03:41:44;103083.94;;;5.46;100.00
60244;BME280;46106;51.468;5.814;2023-02-11T03:44:13;103082.06;;;5.49;100.00
60244;BME280;46106;51.468;5.814;2023-02-11T03:46:42;103086.56;;;5.49;100.00
60244;BME280;46106;51.468;5.814;2023-02-11T03:49:12;103077.56;;;5.47;100.00
60244;BME280;46106;51.468;5.814;2023-02-11T03:51:39;103067.66;;;5.44;100.00
60244;BME280;46106;51.468;5.814;2023-02-11T03:54:10;103078.38;;;5.52;100.00
60244;BME280;46106;51.468;5.814;2023-02-11T03:56:44;103060.34;;;5.49;100.00
60244;BME280;46106;51.468;5.814;2023-02-11T03:59:13;103056.69;;;5.49;100.00
60244;BME280;46106;51.468;5.814;2023-02-11T04:01:39;103063.84;;;5.55;100.00
60244;BME280;46106;51.468;5.814;2023-02-11T04:04:04;103053.06;;;5.50;100.00
60244;BME280;46106;51.468;5.814;2023-02-11T04:06:31;103051.09;;;5.57;100.00
60244;BME280;46106;51.468;5.814;2023-02-11T04:09:01;103037.69;;;5.49;100.00
60244;BME280;46106;51.468;5.814;2023-02-11T04:11:26;103042.97;;;5.55;100.00
60244;BME280;46106;51.468;5.814;2023-02-11T04:13:52;103042.09;;;5.55;100.00
60244;BME280;46106;51.468;5.814;2023-02-11T04:16:17;103040.38;;;5.49;100.00
60244;BME280;46106;51.468;5.814;2023-02-11T04:18:43;103039.31;;;5.58;100.00
60244;BME280;46106;51.468;5.814;2023-02-11T04:21:08;103037.59;;;5.52;100.00
60244;BME280;46106;51.468;5.814;2023-02-11T04:23:34;103042.09;;;5.55;100.00
60244;BME280;46106;51.468;5.814;2023-02-11T04:25:59;103037.47;;;5.58;100.00
60244;BME280;46106;51.468;5.814;2023-02-11T04:28:25;103036.59;;;5.58;100.00
60244;BME280;46106;51.468;5.814;2023-02-11T04:30:54;103042.09;;;5.55;100.00
60244;BME280;46106;51.468;5.814;2023-02-11T04:33:19;103032.19;;;5.52;100.00
60244;BME280;46106;51.468;5.814;2023-02-11T04:35:45;103038.41;;;5.57;100.00
60244;BME280;46106;51.468;5.814;2023-02-11T04:38:11;103040.19;;;5.58;100.00
60244;BME280;46106;51.468;5.814;2023-02-11T04:40:36;103049.19;;;5.60;100.00
60244;BME280;46106;51.468;5.814;2023-02-11T04:43:02;103052.75;;;5.62;100.00
60244;BME280;46106;51.468;5.814;2023-02-11T04:45:27;103050.22;;;5.56;100.00
60244;BME280;46106;51.468;5.814;2023-02-11T04:47:53;103048.28;;;5.61;100.00
60244;BME280;46106;51.468;5.814;2023-02-11T04:50:18;103046.47;;;5.60;100.00
60244;BME280;46106;51.468;5.814;2023-02-11T04:52:44;103049.16;;;5.62;100.00
60244;BME280;46106;51.468;5.814;2023-02-11T04:55:09;103047.34;;;5.62;100.00
60244;BME280;46106;51.468;5.814;2023-02-11T04:57:35;103050.13;;;5.61;100.00
60244;BME280;46106;51.468;5.814;2023-02-11T05:00:00;103058.28;;;5.61;100.00
60244;BME280;46106;51.468;5.814;2023-02-11T05:02:26;103043.88;;;5.56;100.00
60244;BME280;46106;51.468;5.814;2023-02-11T05:04:51;103054.63;;;5.60;100.00
60244;BME280;46106;51.468;5.814;2023-02-11T05:07:17;103061.81;;;5.64;100.00
60244;BME280;46106;51.468;5.814;2023-02-11T05:09:42;103051.84;;;5.63;100.00
60244;BME280;46106;51.468;5.814;2023-02-11T05:12:08;103053.59;;;5.67;100.00
60244;BME280;46106;51.468;5.814;2023-02-11T05:14:34;103049.13;;;5.63;100.00
60244;BME280;46106;51.468;5.814;2023-02-11T05:16:59;103053.66;;;5.64;100.00
60244;BME280;46106;51.468;5.814;2023-02-11T05:19:25;103048.28;;;5.61;100.00
60244;BME280;46106;51.468;5.814;2023-02-11T05:21:52;103058.09;;;5.67;100.00
60244;BME280;46106;51.468;5.814;2023-02-11T05:24:17;103059.09;;;5.64;100.00
60244;BME280;46106;51.468;5.814;2023-02-11T05:26:43;103045.53;;;5.63;100.00
60244;BME280;46106;51.468;5.814;2023-02-11T05:29:08;103050.88;;;5.67;100.00
60244;BME280;46106;51.468;5.814;2023-02-11T05:31:34;103031.97;;;5.61;100.00
60244;BME280;46106;51.468;5.814;2023-02-11T05:33:59;103030.09;;;5.63;100.00
60244;BME280;46106;51.468;5.814;2023-02-11T05:36:28;103039.13;;;5.65;100.00
60244;BME280;46106;51.468;5.814;2023-02-11T05:38:53;103035.50;;;5.65;100.00
60244;BME280;46106;51.468;5.814;2023-02-11T05:41:19;103018.53;;;5.55;100.00
60244;BME280;46106;51.468;5.814;2023-02-11T05:43:49;103035.53;;;5.63;100.00
60244;BME280;46106;51.468;5.814;2023-02-11T05:46:15;103040.97;;;5.63;100.00
60244;BME280;46106;51.468;5.814;2023-02-11T05:48:41;103048.16;;;5.67;100.00
60244;BME280;46106;51.468;5.814;2023-02-11T05:51:10;103038.25;;;5.63;100.00
60244;BME280;46106;51.468;5.814;2023-02-11T05:53:35;103050.69;;;5.74;100.00
60244;BME280;46106;51.468;5.814;2023-02-11T05:56:02;103034.53;;;5.69;100.00
60244;BME280;46106;51.468;5.814;2023-02-11T05:58:28;103034.38;;;5.74;100.00
60244;BME280;46106;51.468;5.814;2023-02-11T06:00:53;103037.25;;;5.69;100.00
60244;BME280;46106;51.468;5.814;2023-02-11T06:03:19;103039.00;;;5.70;100.00
60244;BME280;46106;51.468;5.814;2023-02-11T06:05:44;103037.19;;;5.70;100.00
60244;BME280;46106;51.468;5.814;2023-02-11T06:08:12;103043.47;;;5.74;100.00
60244;BME280;46106;51.468;5.814;2023-02-11T06:10:37;103020.25;;;5.59;100.00
60244;BME280;46106;51.468;5.814;2023-02-11T06:13:04;103030.94;;;5.67;100.00
60244;BME280;46106;51.468;5.814;2023-02-11T06:15:30;103050.63;;;5.77;100.00
60244;BME280;46106;51.468;5.814;2023-02-11T06:17:55;103038.09;;;5.71;100.00
60244;BME280;46106;51.468;5.814;2023-02-11T06:20:21;103042.72;;;5.67;100.00
60244;BME280;46106;51.468;5.814;2023-02-11T06:22:46;103044.38;;;5.73;100.00
60244;BME280;46106;51.468;5.814;2023-02-11T06:25:12;103033.56;;;5.70;100.00
60244;BME280;46106;51.468;5.814;2023-02-11T06:27:38;103034.53;;;5.69;100.00
60244;BME280;46106;51.468;5.814;2023-02-11T06:30:04;103034.53;;;5.69;100.00
60244;BME280;46106;51.468;5.814;2023-02-11T06:32:31;103045.28;;;5.72;100.00
60244;BME280;46106;51.468;5.814;2023-02-11T06:34:56;103046.22;;;5.73;100.00
60244;BME280;46106;51.468;5.814;2023-02-11T06:37:22;103050.69;;;5.74;100.00
60244;BME280;46106;51.468;5.814;2023-02-11T06:39:49;103044.47;;;5.68;100.00
60244;BME280;46106;51.468;5.814;2023-02-11T06:42:14;103044.50;;;5.67;100.00
60244;BME280;46106;51.468;5.814;2023-02-11T06:44:40;103053.47;;;5.70;100.00
60244;BME280;46106;51.468;5.814;2023-02-11T06:47:06;103054.44;;;5.69;100.00
60244;BME280;46106;51.468;5.814;2023-02-11T06:49:31;103043.75;;;5.60;100.00
60244;BME280;46106;51.468;5.814;2023-02-11T06:51:57;103064.41;;;5.69;100.00
60244;BME280;46106;51.468;5.814;2023-02-11T06:54:22;103075.16;;;5.74;100.00
60244;BME280;46106;51.468;5.814;2023-02-11T06:56:48;103070.47;;;5.80;100.00
60244;BME280;46106;51.468;5.814;2023-02-11T06:59:17;103072.38;;;5.77;100.00
60244;BME280;46106;51.468;5.814;2023-02-11T07:01:45;103070.50;;;5.79;100.00
60244;BME280;46106;51.468;5.814;2023-02-11T07:04:11;103070.56;;;5.77;100.00
60244;BME280;46106;51.468;5.814;2023-02-11T07:06:39;103056.06;;;5.77;100.00
60244;BME280;46106;51.468;5.814;2023-02-11T07:09:05;103069.59;;;5.80;100.00
60244;BME280;46106;51.468;5.814;2023-02-11T07:11:31;103069.56;;;5.81;100.00
60244;BME280;46106;51.468;5.814;2023-02-11T07:14:05;103069.59;;;5.80;100.00
60244;BME280;46106;51.468;5.814;2023-02-11T07:16:33;103075.91;;;5.80;100.00
60244;BME280;46106;51.468;5.814;2023-02-11T07:18:59;103068.78;;;5.76;100.00
60244;BME280;46106;51.468;5.814;2023-02-11T07:21:26;103077.75;;;5.80;100.00
60244;BME280;46106;51.468;5.814;2023-02-11T07:23:52;103085.78;;;5.86;100.00
60244;BME280;46106;51.468;5.814;2023-02-11T07:26:19;103079.44;;;5.85;100.00
60244;BME280;46106;51.468;5.814;2023-02-11T07:28:48;103084.91;;;5.84;100.00
60244;BME280;46106;51.468;5.814;2023-02-11T07:31:25;103079.44;;;5.85;100.00
60244;BME280;46106;51.468;5.814;2023-02-11T07:33:52;103092.06;;;5.88;100.00
60244;BME280;46106;51.468;5.814;2023-02-11T07:36:18;103093.81;;;5.91;100.00
60244;BME280;46106;51.468;5.814;2023-02-11T07:38:44;103094.63;;;5.94;100.00
60244;BME280;46106;51.468;5.814;2023-02-11T07:41:11;103097.44;;;5.91;100.00
60244;BME280;46106;51.468;5.814;2023-02-11T07:43:39;103102.91;;;5.89;100.00
60244;BME280;46106;51.468;5.814;2023-02-11T07:46:06;103100.22;;;5.88;100.00
60244;BME280;46106;51.468;5.814;2023-02-11T07:48:33;103100.09;;;5.93;100.00
60244;BME280;46106;51.468;5.814;2023-02-11T07:51:11;103109.13;;;5.95;100.00
60244;BME280;46106;51.468;5.814;2023-02-11T07:53:37;103112.69;;;5.98;100.00
60244;BME280;46106;51.468;5.814;2023-02-11T07:56:04;103108.19;;;5.96;100.00
60244;BME280;46106;51.468;5.814;2023-02-11T07:58:30;103125.28;;;6.02;100.00
60244;BME280;46106;51.468;5.814;2023-02-11T08:01:07;103118.88;;;6.05;100.00
60244;BME280;46106;51.468;5.814;2023-02-11T08:03:35;103109.88;;;6.03;100.00
60244;BME280;46106;51.468;5.814;2023-02-11T08:06:08;103108.16;;;5.99;100.00
60244;BME280;46106;51.468;5.814;2023-02-11T08:08:34;103124.44;;;6.00;100.00
60244;BME280;46106;51.468;5.814;2023-02-11T08:11:26;103109.88;;;6.03;100.00
60244;BME280;46106;51.468;5.814;2023-02-11T08:13:54;103113.38;;;6.08;100.00
60244;BME280;46106;51.468;5.814;2023-02-11T08:16:27;103119.69;;;6.10;100.00
60244;BME280;46106;51.468;5.814;2023-02-11T08:18:55;103125.75;;;6.21;100.00
60244;BME280;46106;51.468;5.814;2023-02-11T08:21:22;103120.47;;;6.15;100.00
60244;BME280;46106;51.468;5.814;2023-02-11T08:23:48;103126.66;;;6.22;100.00
60244;BME280;46106;51.468;5.814;2023-02-11T08:26:20;103126.69;;;6.20;100.00
60244;BME280;46106;51.468;5.814;2023-02-11T08:28:47;103119.47;;;6.18;100.00
60244;BME280;46106;51.468;5.814;2023-02-11T08:31:19;103134.88;;;6.19;100.00
60244;BME280;46106;51.468;5.814;2023-02-11T08:33:45;103128.41;;;6.23;100.00
60244;BME280;46106;51.468;5.814;2023-02-11T08:36:13;103128.53;;;6.20;100.00
60244;BME280;46106;51.468;5.814;2023-02-11T08:38:40;103130.28;;;6.21;100.00
60244;BME280;46106;51.468;5.814;2023-02-11T08:41:06;103136.56;;;6.24;100.00
60244;BME280;46106;51.468;5.814;2023-02-11T08:43:32;103141.84;;;6.31;100.00
60244;BME280;46106;51.468;5.814;2023-02-11T08:45:58;103139.09;;;6.32;100.00
60244;BME280;46106;51.468;5.814;2023-02-11T08:48:24;103129.22;;;6.28;100.00
60244;BME280;46106;51.468;5.814;2023-02-11T08:50:49;103132.84;;;6.29;100.00
60244;BME280;46106;51.468;5.814;2023-02-11T08:53:15;103135.53;;;6.30;100.00
60244;BME280;46106;51.468;5.814;2023-02-11T08:55:48;103131.81;;;6.33;100.00
60244;BME280;46106;51.468;5.814;2023-02-11T08:58:14;103144.47;;;6.35;100.00
60244;BME280;46106;51.468;5.814;2023-02-11T09:00:39;103136.34;;;6.34;100.00
60244;BME280;46106;51.468;5.814;2023-02-11T09:03:05;103142.47;;;6.42;100.00
60244;BME280;46106;51.468;5.814;2023-02-11T09:05:30;103145.34;;;6.36;100.00
60244;BME280;46106;51.468;5.814;2023-02-11T09:07:55;103156.13;;;6.40;100.00
60244;BME280;46106;51.468;5.814;2023-02-11T09:10:21;103148.88;;;6.39;100.00
60244;BME280;46106;51.468;5.814;2023-02-11T09:12:46;103153.47;;;6.37;100.00
60244;BME280;46106;51.468;5.814;2023-02-11T09:15:12;103156.97;;;6.42;100.00
60244;BME280;46106;51.468;5.814;2023-02-11T09:17:37;103153.44;;;6.39;100.00
60244;BME280;46106;51.468;5.814;2023-02-11T09:20:03;103158.78;;;6.43;100.00
60244;BME280;46106;51.468;5.814;2023-02-11T09:22:29;103159.66;;;6.44;100.00
60244;BME280;46106;51.468;5.814;2023-02-11T09:24:54;103169.56;;;6.48;100.00
60244;BME280;46106;51.468;5.814;2023-02-11T09:27:21;103165.16;;;6.41;100.00
60244;BME280;46106;51.468;5.814;2023-02-11T09:29:46;103160.53;;;6.46;100.00
60244;BME280;46106;51.468;5.814;2023-02-11T09:32:12;103153.34;;;6.43;100.00
60244;BME280;46106;51.468;5.814;2023-02-11T09:34:37;103133.50;;;6.38;100.00
60244;BME280;46106;51.468;5.814;2023-02-11T09:37:03;103163.81;;;6.59;100.00
60244;BME280;46106;51.468;5.814;2023-02-11T09:39:28;103170.25;;;6.56;100.00
60244;BME280;46106;51.468;5.814;2023-02-11T09:44:32;103178.31;;;6.61;100.00
60244;BME280;46106;51.468;5.814;2023-02-11T09:47:10;103180.03;;;6.63;100.00
60244;BME280;46106;51.468;5.814;2023-02-11T09:49:48;103181.09;;;6.58;100.00
60244;BME280;46106;51.468;5.814;2023-02-11T09:52:20;103181.84;;;6.65;100.00
60244;BME280;46106;51.468;5.814;2023-02-11T09:54:56;103182.66;;;6.68;100.00
60244;BME280;46106;51.468;5.814;2023-02-11T09:57:30;103174.63;;;6.62;100.00
60244;BME280;46106;51.468;5.814;2023-02-11T09:59:56;103195.34;;;6.69;100.00
60244;BME280;46106;51.468;5.814;2023-02-11T10:02:38;103184.56;;;6.65;100.00
60244;BME280;46106;51.468;5.814;2023-02-11T10:05:31;103196.19;;;6.71;100.00
60244;BME280;46106;51.468;5.814;2023-02-11T10:08:48;103180.81;;;6.69;100.00
60244;BME280;46106;51.468;5.814;2023-02-11T10:14:04;103207.78;;;6.79;100.00
60244;BME280;46106;51.468;5.814;2023-02-11T10:19:45;103215.97;;;6.79;100.00
60244;BME280;46106;51.468;5.814;2023-02-11T10:22:26;103217.66;;;6.84;100.00
60244;BME280;46106;51.468;5.814;2023-02-11T10:24:57;103224.06;;;6.83;100.00
60244;BME280;46106;51.468;5.814;2023-02-11T10:27:32;103232.19;;;6.84;100.00
60244;BME280;46106;51.468;5.814;2023-02-11T10:30:03;103228.53;;;6.84;100.00
60244;BME280;46106;51.468;5.814;2023-02-11T10:32:40;103223.03;;;6.87;100.00
60244;BME280;46106;51.468;5.814;2023-02-11T10:35:19;103214.84;;;6.87;100.00
60244;BME280;46106;51.468;5.814;2023-02-11T10:37:48;103216.66;;;6.88;100.00
60244;BME280;46106;51.468;5.814;2023-02-11T10:40:19;103223.09;;;6.84;100.00
60244;BME280;46106;51.468;5.814;2023-02-11T10:42:54;103216.66;;;6.88;100.00
60244;BME280;46106;51.468;5.814;2023-02-11T10:45:35;103229.22;;;6.93;100.00
60244;BME280;46106;51.468;5.814;2023-02-11T10:48:04;103230.91;;;6.99;100.00
60244;BME280;46106;51.468;5.814;2023-02-11T10:50:32;103229.13;;;6.96;100.00
60244;BME280;46106;51.468;5.814;2023-02-11T10:53:26;103227.09;;;7.05;100.00
60244;BME280;46106;51.468;5.814;2023-02-11T10:55:55;103228.94;;;7.04;100.00
60244;BME280;46106;51.468;5.814;2023-02-11T10:59:13;103234.28;;;7.09;100.00
60244;BME280;46106;51.468;5.814;2023-02-11T11:01:13;103234.28;;;7.09;100.00
60244;BME280;46106;51.468;5.814;2023-02-11T11:03:46;103237.84;;;7.11;100.00
60244;BME280;46106;51.468;5.814;2023-02-11T11:06:13;103220.66;;;7.09;100.00
60244;BME280;46106;51.468;5.814;2023-02-11T11:08:50;103235.81;;;7.19;100.00
60244;BME280;46106;51.468;5.814;2023-02-11T11:11:18;103235.91;;;7.16;100.00
60244;BME280;46106;51.468;5.814;2023-02-11T11:13:57;103254.97;;;7.16;100.00
60244;BME280;46106;51.468;5.814;2023-02-11T11:16:31;103244.06;;;7.16;100.00
60244;BME280;46106;51.468;5.814;2023-02-11T11:21:42;103242.84;;;7.28;100.00
60244;BME280;46106;51.468;5.814;2023-02-11T11:24:31;103238.28;;;7.30;100.00
60244;BME280;46106;51.468;5.814;2023-02-11T11:27:01;103245.44;;;7.32;100.00
60244;BME280;46106;51.468;5.814;2023-02-11T11:32:20;103252.50;;;7.41;100.00
60244;BME280;46106;51.468;5.814;2023-02-11T11:34:52;103246.03;;;7.45;100.00
60244;BME280;46106;51.468;5.814;2023-02-11T11:38:00;103240.44;;;7.50;100.00
60244;BME280;46106;51.468;5.814;2023-02-11T11:40:32;103239.25;;;7.60;100.00
60244;BME280;46106;51.468;5.814;2023-02-11T11:43:14;103234.75;;;7.59;100.00
60244;BME280;46106;51.468;5.814;2023-02-11T11:45:58;103239.25;;;7.60;100.00
60244;BME280;46106;51.468;5.814;2023-02-11T11:48:25;103241.84;;;7.65;100.00
60244;BME280;46106;51.468;5.814;2023-02-11T11:51:01;103229.06;;;7.67;100.00
60244;BME280;46106;51.468;5.814;2023-02-11T11:53:39;103238.75;;;7.77;100.00
60244;BME280;46106;51.468;5.814;2023-02-11T11:56:11;103229.81;;;7.72;100.00
60244;BME280;46106;51.468;5.814;2023-02-11T11:58:38;103220.72;;;7.73;100.00
60244;BME280;46106;51.468;5.814;2023-02-11T12:09:55;103229.47;;;7.84;100.00
60244;BME280;46106;51.468;5.814;2023-02-11T12:21:21;103224.16;;;8.09;100.00
60244;BME280;46106;51.468;5.814;2023-02-11T12:24:20;103223.06;;;8.17;100.00
60244;BME280;46106;51.468;5.814;2023-02-11T12:37:56;103207.72;;;8.41;100.00
60244;BME280;46106;51.468;5.814;2023-02-11T12:43:23;103221.69;;;8.61;100.00
60244;BME280;46106;51.468;5.814;2023-02-11T12:51:43;103210.28;;;8.75;100.00
60244;BME280;46106;51.468;5.814;2023-02-11T12:57:33;103194.91;;;8.73;100.00
60244;BME280;46106;51.468;5.814;2023-02-11T13:00:16;103202.41;;;8.93;100.00
60244;BME280;46106;51.468;5.814;2023-02-11T13:03:03;103193.44;;;8.89;100.00
60244;BME280;46106;51.468;5.814;2023-02-11T13:05:42;103189.75;;;8.90;100.00
60244;BME280;46106;51.468;5.814;2023-02-11T13:08:26;103191.34;;;8.97;100.00
60244;BME280;46106;51.468;5.814;2023-02-11T13:10:56;103185.53;;;9.07;100.00
60244;BME280;46106;51.468;5.814;2023-02-11T13:13:59;103196.25;;;9.13;100.00
60244;BME280;46106;51.468;5.814;2023-02-11T13:22:25;103198.25;;;9.33;100.00
60244;BME280;46106;51.468;5.814;2023-02-11T13:24:47;103204.09;;;9.24;100.00
60244;BME280;46106;51.468;5.814;2023-02-11T13:27:29;103204.28;;;9.17;100.00
60244;BME280;46106;51.468;5.814;2023-02-11T13:30:26;103206.16;;;9.17;100.00
60244;BME280;46106;51.468;5.814;2023-02-11T13:35:37;103197.69;;;8.98;100.00
60244;BME280;46106;51.468;5.814;2023-02-11T13:38:24;103190.06;;;9.08;100.00
60244;BME280;46106;51.468;5.814;2023-02-11T13:41:15;103185.81;;;8.99;100.00
60244;BME280;46106;51.468;5.814;2023-02-11T13:43:42;103185.66;;;9.04;100.00
60244;BME280;46106;51.468;5.814;2023-02-11T13:46:12;103201.00;;;9.08;100.00
60244;BME280;46106;51.468;5.814;2023-02-11T13:48:48;103196.19;;;8.89;100.00
60244;BME280;46106;51.468;5.814;2023-02-11T13:51:31;103204.16;;;8.95;100.00
60244;BME280;46106;51.468;5.814;2023-02-11T13:53:59;103193.34;;;8.92;100.00
60244;BME280;46106;51.468;5.814;2023-02-11T13:56:32;103198.75;;;8.94;100.00
60244;BME280;46106;51.468;5.814;2023-02-11T13:59:01;103197.47;;;9.04;100.00
60244;BME280;46106;51.468;5.814;2023-02-11T14:02:02;103207.88;;;8.93;100.00
60244;BME280;46106;51.468;5.814;2023-02-11T14:11:00;103204.91;;;9.00;100.00
60244;BME280;46106;51.468;5.814;2023-02-11T14:16:21;103205.00;;;8.97;100.00
60244;BME280;46106;51.468;5.814;2023-02-11T14:23:51;103205.78;;;9.01;100.00
60244;BME280;46106;51.468;5.814;2023-02-11T14:32:00;103209.59;;;8.97;100.00
60244;BME280;46106;51.468;5.814;2023-02-11T14:37:19;103212.41;;;8.94;100.00
60244;BME280;46106;51.468;5.814;2023-02-11T14:42:36;103212.47;;;8.92;100.00
60244;BME280;46106;51.468;5.814;2023-02-11T14:45:08;103215.09;;;8.95;100.00
60244;BME280;46106;51.468;5.814;2023-02-11T14:47:38;103209.63;;;8.95;100.00
60244;BME280;46106;51.468;5.814;2023-02-11T14:50:06;103200.66;;;8.90;100.00
60244;BME280;46106;51.468;5.814;2023-02-11T14:52:36;103207.09;;;8.89;100.00
60244;BME280;46106;51.468;5.814;2023-02-11T14:55:19;103207.84;;;8.94;100.00
60244;BME280;46106;51.468;5.814;2023-02-11T14:58:04;103214.41;;;8.89;100.00
60244;BME280;46106;51.468;5.814;2023-02-11T15:00:29;103203.50;;;8.89;100.00